Time;durP1;ratioP1;P1;durP2;ratioP2;P2;SDS_P1;SDS_P2;PMS_P1;PMS_P2;Temp;Humidity;BMP_temperature;BMP_pressure;BME280_temperature;BME280_humidity;BME280_pressure;Samples;Min_cycle;Max_cycle;Signal;HPM_P1;HPM_P2
2023/08/26 00:00:19;;;;;;;8.60;7.80;;;19.80;99.90;;;;;;5047794;28;20508;-74
2023/08/26 00:02:45;;;;;;;10.93;7.60;;;19.70;99.90;;;;;;5048447;28;20021;-74
2023/08/26 00:05:11;;;;;;;7.93;7.18;;;19.70;99.90;;;;;;5047676;28;20398;-74
2023/08/26 00:07:36;;;;;;;8.35;6.63;;;19.60;99.90;;;;;;5048285;28;20025;-74
2023/08/26 00:10:02;;;;;;;10.43;6.88;;;19.60;99.90;;;;;;5048321;28;20029;-74
2023/08/26 00:12:27;;;;;;;11.35;6.32;;;19.60;99.90;;;;;;5048601;28;20021;-75
2023/08/26 00:14:53;;;;;;;8.10;6.38;;;19.50;99.90;;;;;;5048266;28;20048;-75
2023/08/26 00:17:19;;;;;;;7.38;6.63;;;19.50;99.90;;;;;;5047552;28;20358;-74
2023/08/26 00:19:44;;;;;;;7.85;6.32;;;19.40;99.90;;;;;;5048131;28;20037;-74
2023/08/26 00:22:10;;;;;;;7.30;6.60;;;19.40;99.90;;;;;;5046828;28;20086;-74
2023/08/26 00:24:36;;;;;;;10.07;8.02;;;19.40;99.90;;;;;;5048182;28;20025;-75
2023/08/26 00:27:02;;;;;;;8.30;7.05;;;19.40;99.90;;;;;;5047805;28;20029;-75
2023/08/26 00:29:28;;;;;;;9.25;6.82;;;19.40;99.90;;;;;;5048139;28;20437;-75
2023/08/26 00:31:53;;;;;;;10.48;8.13;;;19.30;99.90;;;;;;5048567;28;20028;-74
2023/08/26 00:34:19;;;;;;;9.57;6.80;;;19.30;99.90;;;;;;5047727;28;20118;-75
2023/08/26 00:36:45;;;;;;;8.32;7.45;;;19.40;99.90;;;;;;5048087;28;20461;-74
2023/08/26 00:39:10;;;;;;;7.43;6.45;;;19.30;99.90;;;;;;5047647;28;20017;-75
2023/08/26 00:41:36;;;;;;;6.93;6.30;;;19.30;99.90;;;;;;5048252;28;20400;-74
2023/08/26 00:44:01;;;;;;;7.97;7.18;;;19.30;99.90;;;;;;5047857;28;20021;-75
2023/08/26 00:46:28;;;;;;;10.45;7.28;;;19.30;99.90;;;;;;5047340;28;20017;-74
2023/08/26 00:48:54;;;;;;;8.68;7.85;;;19.30;99.90;;;;;;5047607;28;20021;-75
2023/08/26 00:51:20;;;;;;;8.60;7.90;;;19.30;99.90;;;;;;5063763;28;20078;-74
2023/08/26 00:53:48;;;;;;;7.38;6.68;;;19.20;99.90;;;;;;5057357;28;20072;-75
2023/08/26 00:56:14;;;;;;;9.23;8.32;;;19.20;99.90;;;;;;5060236;28;20086;-75
2023/08/26 00:58:40;;;;;;;9.52;8.57;;;19.10;99.90;;;;;;5068557;28;20041;-75
2023/08/26 01:01:05;;;;;;;9.82;8.82;;;19.10;99.90;;;;;;5068212;28;20085;-75
2023/08/26 01:03:32;;;;;;;9.73;8.82;;;19.00;99.90;;;;;;5070936;28;20411;-75
2023/08/26 01:05:58;;;;;;;10.32;7.95;;;19.00;99.90;;;;;;5070318;28;20032;-75
2023/08/26 01:08:24;;;;;;;8.88;8.02;;;19.10;99.90;;;;;;5060259;28;20360;-75
2023/08/26 01:11:28;;;;;;;9.93;9.02;;;19.10;99.90;;;;;;5064436;28;20378;-74
2023/08/26 01:14:04;;;;;;;10.40;9.30;;;19.10;99.90;;;;;;5063599;28;20489;-75
2023/08/26 01:16:33;;;;;;;9.95;9.00;;;19.20;99.90;;;;;;5062493;28;20029;-75
2023/08/26 01:18:59;;;;;;;10.68;9.57;;;19.10;99.90;;;;;;5070759;28;20012;-75
2023/08/26 01:21:35;;;;;;;9.43;8.48;;;19.10;99.90;;;;;;5059129;28;20083;-75
2023/08/26 01:24:01;;;;;;;10.77;9.50;;;19.10;99.90;;;;;;5051131;28;20438;-75
2023/08/26 01:26:27;;;;;;;8.45;6.97;;;19.10;99.90;;;;;;5050937;28;20021;-74
2023/08/26 01:28:52;;;;;;;8.85;6.40;;;19.20;99.90;;;;;;5069406;28;20393;-75
2023/08/26 01:31:20;;;;;;;7.18;6.53;;;19.20;99.90;;;;;;5058123;28;20033;-74
2023/08/26 01:34:02;;;;;;;7.53;6.75;;;19.10;99.90;;;;;;5051023;28;20032;-75
2023/08/26 01:36:29;;;;;;;7.80;6.90;;;19.10;99.90;;;;;;5049398;28;20401;-74
2023/08/26 01:38:56;;;;;;;8.18;5.93;;;19.10;99.90;;;;;;5059460;28;20035;-75
2023/08/26 01:41:24;;;;;;;8.27;7.03;;;19.10;99.90;;;;;;5069858;28;20036;-75
2023/08/26 01:43:50;;;;;;;10.93;6.50;;;19.10;99.90;;;;;;5065232;28;20032;-75
2023/08/26 01:46:16;;;;;;;8.85;7.55;;;19.10;99.90;;;;;;5063838;28;20481;-75
2023/08/26 01:48:42;;;;;;;9.35;8.05;;;19.10;99.90;;;;;;5070092;28;20017;-75
2023/08/26 01:51:07;;;;;;;10.45;7.35;;;19.00;99.90;;;;;;5070193;28;20028;-75
2023/08/26 01:53:33;;;;;;;13.98;9.00;;;19.10;99.90;;;;;;5069020;28;20059;-75
2023/08/26 01:55:58;;;;;;;10.32;9.10;;;19.00;99.90;;;;;;5055142;28;20363;-75
2023/08/26 01:58:24;;;;;;;11.13;9.07;;;19.00;99.90;;;;;;5050336;28;20025;-75
2023/08/26 02:00:50;;;;;;;10.57;9.00;;;19.00;99.90;;;;;;5051977;28;20036;-75
2023/08/26 02:03:15;;;;;;;14.18;11.48;;;18.90;99.90;;;;;;5061314;28;20092;-75
2023/08/26 02:05:41;;;;;;;11.48;9.32;;;18.90;99.90;;;;;;5050200;28;20052;-75
2023/08/26 02:08:06;;;;;;;13.90;10.10;;;18.90;99.90;;;;;;5049773;28;20071;-75
2023/08/26 02:10:32;;;;;;;11.05;8.85;;;18.80;99.90;;;;;;5052606;28;20052;-76
2023/08/26 02:12:57;;;;;;;10.07;8.80;;;18.80;99.90;;;;;;5058715;28;20377;-75
2023/08/26 02:15:23;;;;;;;10.27;8.05;;;18.80;99.90;;;;;;5069194;28;20500;-75
2023/08/26 02:17:48;;;;;;;6.50;5.90;;;18.70;99.90;;;;;;5067704;28;20028;-75
2023/08/26 02:20:14;;;;;;;9.25;7.28;;;18.70;99.90;;;;;;5068931;28;20024;-75
2023/08/26 02:22:40;;;;;;;9.85;7.35;;;18.60;99.90;;;;;;5069793;28;20520;-75
2023/08/26 02:25:05;;;;;;;10.77;7.03;;;18.60;99.90;;;;;;5061467;28;20048;-75
2023/08/26 02:27:31;;;;;;;12.88;8.15;;;18.50;99.90;;;;;;5067933;28;20473;-75
2023/08/26 02:29:57;;;;;;;8.60;6.72;;;18.50;99.90;;;;;;5068928;28;20032;-75
2023/08/26 02:32:23;;;;;;;11.13;7.78;;;18.40;99.90;;;;;;5068883;28;20032;-75
2023/08/26 02:34:49;;;;;;;8.85;6.85;;;18.40;99.90;;;;;;5064016;28;20037;-75
2023/08/26 02:37:14;;;;;;;8.63;6.25;;;18.30;99.90;;;;;;5069728;28;20023;-75
2023/08/26 02:39:40;;;;;;;9.30;6.45;;;18.30;99.90;;;;;;5069102;28;20390;-76
2023/08/26 02:42:06;;;;;;;11.25;6.57;;;18.20;99.90;;;;;;5069455;28;20100;-75
2023/08/26 02:44:31;;;;;;;11.10;6.40;;;18.20;99.90;;;;;;5066151;28;20087;-75
2023/08/26 02:46:57;;;;;;;7.97;6.10;;;18.20;99.90;;;;;;5068876;28;20442;-75
2023/08/26 02:49:22;;;;;;;10.15;6.18;;;18.20;99.90;;;;;;5068116;28;20024;-75
2023/08/26 02:51:48;;;;;;;6.30;5.68;;;18.10;99.90;;;;;;5061922;28;20103;-75
2023/08/26 02:54:13;;;;;;;10.93;6.38;;;18.00;99.90;;;;;;5049449;28;20564;-75
2023/08/26 02:56:39;;;;;;;7.35;6.00;;;18.00;99.90;;;;;;5049713;28;20021;-75
2023/08/26 02:59:04;;;;;;;8.23;6.30;;;17.90;99.90;;;;;;5063393;28;20466;-75
2023/08/26 03:01:30;;;;;;;9.30;5.82;;;17.90;99.90;;;;;;5056276;28;20036;-75
2023/08/26 03:03:57;;;;;;;9.32;7.03;;;17.90;99.90;;;;;;5062251;28;20020;-76
2023/08/26 03:06:22;;;;;;;13.43;6.28;;;17.90;99.90;;;;;;5058795;28;20077;-75
2023/08/26 03:08:48;;;;;;;11.70;6.38;;;17.80;99.90;;;;;;5066181;28;20024;-75
2023/08/26 03:11:14;;;;;;;8.43;5.68;;;17.80;99.90;;;;;;5067790;28;20489;-75
2023/08/26 03:13:39;;;;;;;12.70;5.47;;;17.70;99.90;;;;;;5059703;28;20021;-75
2023/08/26 03:16:10;;;;;;;9.05;5.82;;;17.70;99.90;;;;;;5056703;28;20025;-75
2023/08/26 03:18:36;;;;;;;8.65;5.32;;;17.70;99.90;;;;;;5067029;28;20031;-75
2023/08/26 03:21:06;;;;;;;12.75;5.90;;;17.70;99.90;;;;;;5068199;28;20083;-75
2023/08/26 03:23:32;;;;;;;10.30;6.22;;;17.60;99.90;;;;;;5066687;28;20016;-74
2023/08/26 03:25:58;;;;;;;10.23;5.38;;;17.60;99.90;;;;;;5068673;28;20024;-76
2023/08/26 03:28:23;;;;;;;7.30;5.43;;;17.60;99.90;;;;;;5064598;28;20029;-76
2023/08/26 03:30:49;;;;;;;10.68;6.40;;;17.60;99.90;;;;;;5067451;28;20104;-76
2023/08/26 03:33:15;;;;;;;12.65;6.13;;;17.50;99.90;;;;;;5067636;28;20048;-76
2023/08/26 03:35:40;;;;;;;8.98;5.47;;;17.50;99.90;;;;;;5068370;28;20093;-75
2023/08/26 03:38:06;;;;;;;9.77;5.63;;;17.40;99.90;;;;;;5068279;28;20103;-76
2023/08/26 03:40:32;;;;;;;11.70;5.25;;;17.30;99.90;;;;;;5067999;28;20043;-75
2023/08/26 03:43:00;;;;;;;7.43;5.30;;;17.30;99.90;;;;;;5066329;28;20028;-76
2023/08/26 03:45:26;;;;;;;5.95;5.00;;;17.20;99.90;;;;;;5056191;28;20032;-75
2023/08/26 03:47:51;;;;;;;9.88;4.88;;;17.20;99.90;;;;;;5067784;28;20107;-76
2023/08/26 03:50:17;;;;;;;7.10;4.97;;;17.10;99.90;;;;;;5067964;28;20099;-76
2023/08/26 03:52:43;;;;;;;10.82;5.20;;;17.00;99.90;;;;;;5055122;28;20029;-76
2023/08/26 03:55:09;;;;;;;10.60;5.55;;;16.90;99.90;;;;;;5067932;28;20048;-76
2023/08/26 03:57:34;;;;;;;6.88;4.45;;;16.90;99.90;;;;;;5066210;28;20039;-76
2023/08/26 04:00:00;;;;;;;6.88;4.60;;;16.80;99.90;;;;;;5057752;28;20036;-76
2023/08/26 04:02:25;;;;;;;5.88;5.03;;;16.70;99.90;;;;;;5065609;28;20024;-76
2023/08/26 04:04:51;;;;;;;10.32;5.18;;;16.70;99.90;;;;;;5048255;28;20079;-76
2023/08/26 04:07:16;;;;;;;7.60;4.43;;;16.60;99.90;;;;;;5060708;28;20024;-75
2023/08/26 04:09:42;;;;;;;5.05;4.28;;;16.50;99.90;;;;;;5048424;28;20064;-75
2023/08/26 04:12:08;;;;;;;8.30;4.30;;;16.50;99.90;;;;;;5062339;28;20055;-76
2023/08/26 04:14:34;;;;;;;8.02;4.10;;;16.40;99.90;;;;;;5053078;28;20186;-76
2023/08/26 04:17:01;;;;;;;9.82;5.22;;;16.30;99.90;;;;;;5048713;28;20056;-75
2023/08/26 04:19:30;;;;;;;8.32;5.30;;;16.20;99.90;;;;;;5067932;28;20025;-76
2023/08/26 04:21:57;;;;;;;9.18;4.80;;;16.20;99.90;;;;;;5068028;28;20044;-75
2023/08/26 04:24:22;;;;;;;8.15;4.20;;;16.20;99.90;;;;;;5059373;28;20025;-75
2023/08/26 04:26:48;;;;;;;5.07;4.03;;;16.10;99.90;;;;;;5049592;28;20032;-75
2023/08/26 04:29:13;;;;;;;7.68;4.15;;;16.00;99.90;;;;;;5064786;28;20060;-75
2023/08/26 04:31:39;;;;;;;9.95;4.30;;;16.00;99.90;;;;;;5058540;28;20032;-76
2023/08/26 04:34:05;;;;;;;7.05;3.92;;;16.00;99.90;;;;;;5062287;28;20422;-76
2023/08/26 04:36:30;;;;;;;5.85;4.15;;;15.90;99.90;;;;;;5052130;28;20485;-76
2023/08/26 04:38:57;;;;;;;4.90;3.50;;;15.90;99.90;;;;;;5052497;28;20346;-75
2023/08/26 04:41:23;;;;;;;5.85;3.88;;;15.90;99.90;;;;;;5052311;28;20032;-75
2023/08/26 04:43:49;;;;;;;8.02;4.18;;;15.90;99.90;;;;;;5051959;28;20478;-75
2023/08/26 04:46:15;;;;;;;7.22;4.07;;;15.80;99.90;;;;;;5052661;28;20055;-75
2023/08/26 04:48:41;;;;;;;10.05;4.32;;;15.80;99.90;;;;;;5052145;28;20053;-75
2023/08/26 04:51:06;;;;;;;4.55;3.42;;;15.80;99.90;;;;;;5065078;28;20037;-75
2023/08/26 04:53:32;;;;;;;7.25;3.53;;;15.70;99.90;;;;;;5051678;28;20036;-75
2023/08/26 04:55:57;;;;;;;5.78;2.97;;;15.70;99.90;;;;;;5065469;28;20024;-75
2023/08/26 04:58:23;;;;;;;8.00;4.20;;;15.70;99.90;;;;;;5066236;28;20029;-76
2023/08/26 05:00:48;;;;;;;7.07;3.58;;;15.70;99.90;;;;;;5066167;28;20054;-76
2023/08/26 05:03:14;;;;;;;7.07;3.38;;;15.70;99.90;;;;;;5071416;28;20017;-75
2023/08/26 05:05:41;;;;;;;9.68;3.53;;;15.70;99.90;;;;;;5070821;28;20031;-74
2023/08/26 05:08:08;;;;;;;7.65;4.13;;;15.60;99.90;;;;;;5061393;28;20063;-75
2023/08/26 05:10:35;;;;;;;4.50;3.13;;;15.60;99.90;;;;;;5052934;28;20036;-74
2023/08/26 05:13:01;;;;;;;5.13;3.15;;;15.60;99.90;;;;;;5071072;28;20061;-74
2023/08/26 05:15:28;;;;;;;5.20;3.13;;;15.70;99.90;;;;;;5065691;28;20029;-74
2023/08/26 05:17:54;;;;;;;7.07;3.90;;;15.70;99.90;;;;;;5070668;28;20028;-74
2023/08/26 05:20:19;;;;;;;5.03;3.10;;;15.70;99.90;;;;;;5069595;28;20385;-74
2023/08/26 05:22:45;;;;;;;7.25;3.40;;;15.70;99.90;;;;;;5070810;28;20028;-74
2023/08/26 05:25:11;;;;;;;6.03;2.95;;;15.70;99.90;;;;;;5070058;28;20044;-74
2023/08/26 05:27:36;;;;;;;5.32;3.05;;;15.80;99.90;;;;;;5070445;28;20020;-74
2023/08/26 05:30:03;;;;;;;5.80;3.13;;;15.90;99.90;;;;;;5069125;28;20021;-75
2023/08/26 05:32:29;;;;;;;7.55;3.58;;;16.00;99.90;;;;;;5070546;28;20477;-74
2023/08/26 05:34:54;;;;;;;6.75;2.78;;;16.00;99.90;;;;;;5070421;28;20032;-75
2023/08/26 05:37:20;;;;;;;4.53;2.67;;;16.10;99.90;;;;;;5061986;28;20025;-75
2023/08/26 05:39:46;;;;;;;5.93;3.15;;;16.20;99.90;;;;;;5044078;28;20033;-74
2023/08/26 05:42:11;;;;;;;5.47;3.28;;;16.20;99.90;;;;;;5053001;28;20056;-74
2023/08/26 05:44:37;;;;;;;5.93;2.63;;;16.10;99.90;;;;;;5063772;28;20033;-75
2023/08/26 05:47:02;;;;;;;5.47;2.70;;;16.20;99.90;;;;;;5056303;28;20082;-75
2023/08/26 05:49:29;;;;;;;8.38;3.15;;;16.20;99.90;;;;;;5061304;28;20056;-74
2023/08/26 05:51:54;;;;;;;6.50;2.50;;;16.20;99.90;;;;;;5051043;28;20031;-75
2023/08/26 05:54:20;;;;;;;8.23;3.42;;;16.10;99.90;;;;;;5050673;28;20041;-74
2023/08/26 05:56:46;;;;;;;4.45;2.70;;;16.10;99.90;;;;;;5050730;28;20696;-75
2023/08/26 05:59:12;;;;;;;3.80;2.47;;;16.10;99.90;;;;;;5050972;28;20055;-74
2023/08/26 06:01:37;;;;;;;5.60;2.20;;;16.10;99.90;;;;;;5050877;28;20037;-74
2023/08/26 06:04:03;;;;;;;4.63;2.42;;;16.10;99.90;;;;;;5050824;28;20074;-74
2023/08/26 06:06:29;;;;;;;5.43;2.75;;;16.10;99.90;;;;;;5050484;28;20047;-74
2023/08/26 06:08:55;;;;;;;7.38;2.50;;;16.10;99.90;;;;;;5050521;28;20104;-74
2023/08/26 06:11:20;;;;;;;4.10;3.00;;;16.10;99.90;;;;;;5049728;28;20096;-74
2023/08/26 06:13:46;;;;;;;6.57;3.05;;;16.10;99.90;;;;;;5052050;28;20044;-74
2023/08/26 06:16:12;;;;;;;5.35;2.60;;;16.10;99.90;;;;;;5070270;28;20027;-74
2023/08/26 06:18:37;;;;;;;4.80;2.15;;;16.10;99.90;;;;;;5069517;28;20031;-74
2023/08/26 06:21:04;;;;;;;4.28;2.75;;;16.10;99.90;;;;;;5061658;28;20033;-74
2023/08/26 06:23:29;;;;;;;4.78;2.85;;;16.20;99.90;;;;;;5050034;28;20127;-74
2023/08/26 06:25:56;;;;;;;6.70;2.78;;;16.20;99.90;;;;;;5050084;28;20115;-75
2023/08/26 06:28:23;;;;;;;3.85;1.83;;;16.20;99.90;;;;;;5050109;28;20036;-75
2023/08/26 06:30:49;;;;;;;8.52;3.20;;;16.20;99.90;;;;;;5050672;28;20069;-75
2023/08/26 06:33:15;;;;;;;6.90;3.05;;;16.20;99.90;;;;;;5051028;28;20183;-75
2023/08/26 06:35:47;;;;;;;6.53;3.13;;;16.30;99.90;;;;;;5049470;28;20028;-74
2023/08/26 06:38:13;;;;;;;7.65;3.00;;;16.30;99.90;;;;;;5051824;28;20125;-75
2023/08/26 06:40:38;;;;;;;6.13;2.67;;;16.30;99.90;;;;;;5050608;28;20564;-74
2023/08/26 06:43:04;;;;;;;4.43;3.33;;;16.40;99.90;;;;;;5051937;28;20025;-74
2023/08/26 06:45:31;;;;;;;5.57;3.03;;;16.40;99.90;;;;;;5050764;28;20032;-75
2023/08/26 06:47:57;;;;;;;5.18;2.97;;;16.40;99.90;;;;;;5050155;28;20016;-74
2023/08/26 06:50:23;;;;;;;5.55;2.63;;;16.40;99.90;;;;;;5059800;28;20024;-74
2023/08/26 06:52:49;;;;;;;8.07;3.50;;;16.40;99.90;;;;;;5055058;28;20087;-74
2023/08/26 06:55:16;;;;;;;6.30;3.50;;;16.50;99.90;;;;;;5055691;28;20061;-76
2023/08/26 06:57:41;;;;;;;8.55;2.95;;;16.50;99.90;;;;;;5053235;28;20036;-76
2023/08/26 07:00:10;;;;;;;4.20;3.20;;;16.50;99.90;;;;;;5048911;28;20463;-76
2023/08/26 07:02:36;;;;;;;7.30;3.38;;;16.50;99.90;;;;;;5059169;28;20488;-76
2023/08/26 07:05:02;;;;;;;7.35;3.20;;;16.60;99.90;;;;;;5066724;28;20021;-76
2023/08/26 07:07:28;;;;;;;11.65;3.33;;;16.60;99.90;;;;;;5048756;28;20013;-75
2023/08/26 07:09:53;;;;;;;4.32;2.78;;;16.70;99.90;;;;;;5057244;28;20025;-76
2023/08/26 07:12:19;;;;;;;6.43;3.35;;;16.80;99.90;;;;;;5067925;28;20020;-75
2023/08/26 07:14:45;;;;;;;3.45;3.08;;;16.80;99.90;;;;;;5068971;28;20027;-76
2023/08/26 07:17:10;;;;;;;6.53;3.22;;;16.80;99.90;;;;;;5067723;28;20032;-75
2023/08/26 07:19:36;;;;;;;6.15;3.10;;;16.80;99.90;;;;;;5067923;28;20055;-75
2023/08/26 07:22:02;;;;;;;5.22;3.45;;;16.90;99.90;;;;;;5066989;28;20024;-75
2023/08/26 07:24:28;;;;;;;9.40;3.72;;;17.00;99.90;;;;;;5068289;28;20023;-75
2023/08/26 07:26:54;;;;;;;5.13;3.10;;;17.00;99.90;;;;;;5055279;28;20023;-75
2023/08/26 07:29:19;;;;;;;5.72;3.65;;;17.10;99.90;;;;;;5049984;28;20021;-75
2023/08/26 07:31:45;;;;;;;5.75;3.33;;;17.20;99.90;;;;;;5051761;28;20029;-75
2023/08/26 07:34:10;;;;;;;4.97;2.83;;;17.30;99.90;;;;;;5050427;28;20025;-75
2023/08/26 07:36:36;;;;;;;4.85;3.10;;;17.30;99.90;;;;;;5051393;28;20131;-75
2023/08/26 07:39:03;;;;;;;3.95;2.88;;;17.30;99.90;;;;;;5050406;28;20359;-75
2023/08/26 07:41:28;;;;;;;4.85;2.75;;;17.40;99.90;;;;;;5051462;28;20411;-75
2023/08/26 07:43:54;;;;;;;5.07;2.33;;;17.50;99.90;;;;;;5050482;28;20035;-75
2023/08/26 07:46:22;;;;;;;4.30;2.15;;;17.70;99.90;;;;;;5051866;28;20032;-75
2023/08/26 07:48:48;;;;;;;8.65;3.58;;;17.90;99.90;;;;;;5048812;28;20389;-75
2023/08/26 07:51:14;;;;;;;3.10;1.83;;;18.20;99.90;;;;;;5048396;28;20082;-75
2023/08/26 07:53:39;;;;;;;7.57;2.45;;;18.40;99.90;;;;;;5057795;28;20048;-75
2023/08/26 07:56:05;;;;;;;4.95;2.20;;;18.60;99.90;;;;;;5065146;28;20157;-74
2023/08/26 07:58:31;;;;;;;3.83;2.35;;;18.80;99.90;;;;;;5067541;28;20027;-75
2023/08/26 08:00:56;;;;;;;3.22;2.30;;;18.90;99.90;;;;;;5064198;28;20048;-75
2023/08/26 08:03:22;;;;;;;3.67;2.42;;;19.00;99.90;;;;;;5056802;28;20526;-75
2023/08/26 08:05:47;;;;;;;4.10;2.15;;;19.10;99.90;;;;;;5066185;28;20043;-75
2023/08/26 08:08:13;;;;;;;4.95;1.58;;;19.10;99.90;;;;;;5068201;28;20078;-75
2023/08/26 08:10:38;;;;;;;3.80;1.83;;;19.10;99.90;;;;;;5066877;28;20029;-75
2023/08/26 08:13:05;;;;;;;5.75;1.92;;;19.10;99.90;;;;;;5067638;28;20110;-75
2023/08/26 08:15:31;;;;;;;6.93;2.30;;;19.10;99.90;;;;;;5065439;28;20507;-75
2023/08/26 08:17:56;;;;;;;5.00;2.33;;;19.10;99.90;;;;;;5058323;28;20058;-76
2023/08/26 08:20:22;;;;;;;5.50;2.17;;;19.10;99.90;;;;;;5065534;28;20067;-76
2023/08/26 08:22:48;;;;;;;9.00;2.70;;;19.00;99.90;;;;;;5067746;28;20028;-75
2023/08/26 08:25:14;;;;;;;6.50;2.25;;;19.10;99.90;;;;;;5067362;28;20385;-75
2023/08/26 08:27:40;;;;;;;4.63;2.13;;;19.10;99.90;;;;;;5055425;28;20112;-75
2023/08/26 08:30:07;;;;;;;4.32;2.28;;;19.10;99.90;;;;;;5052437;28;20099;-76
2023/08/26 08:32:33;;;;;;;4.55;2.67;;;19.20;99.90;;;;;;5067500;28;20090;-75
2023/08/26 08:34:59;;;;;;;5.93;2.20;;;19.30;99.90;;;;;;5046105;28;20021;-75
2023/08/26 08:37:25;;;;;;;5.38;2.13;;;19.30;99.90;;;;;;5047528;28;20100;-75
2023/08/26 08:39:51;;;;;;;3.50;2.10;;;19.20;99.90;;;;;;5047907;28;20199;-75
2023/08/26 08:42:17;;;;;;;6.20;2.13;;;19.20;99.90;;;;;;5047503;28;20036;-75
2023/08/26 08:44:46;;;;;;;5.32;2.10;;;19.20;99.90;;;;;;5059225;28;20032;-75
2023/08/26 08:47:12;;;;;;;5.20;1.80;;;19.30;99.90;;;;;;5061285;28;20023;-75
2023/08/26 08:49:38;;;;;;;7.25;2.17;;;19.30;99.90;;;;;;5062113;28;20029;-75
2023/08/26 08:52:05;;;;;;;3.55;2.05;;;19.30;99.90;;;;;;5047956;28;20029;-75
2023/08/26 08:54:33;;;;;;;6.80;2.25;;;19.40;99.90;;;;;;5046058;28;20041;-75
2023/08/26 08:57:00;;;;;;;4.82;2.20;;;19.40;99.90;;;;;;5048030;28;20032;-75
2023/08/26 08:59:29;;;;;;;6.88;2.35;;;19.50;99.90;;;;;;5060484;28;20109;-75
2023/08/26 09:01:57;;;;;;;6.82;2.40;;;19.60;99.90;;;;;;5049723;28;20096;-75
2023/08/26 09:04:23;;;;;;;2.40;1.48;;;19.70;99.90;;;;;;5054204;28;20025;-75
2023/08/26 09:06:49;;;;;;;4.78;1.80;;;19.90;99.90;;;;;;5047463;28;20032;-75
2023/08/26 09:09:16;;;;;;;5.70;2.25;;;20.00;99.70;;;;;;5047497;28;20359;-76
2023/08/26 09:11:42;;;;;;;4.13;1.70;;;20.20;99.60;;;;;;5062823;28;20028;-75
2023/08/26 09:14:08;;;;;;;6.03;1.80;;;20.30;99.50;;;;;;5065158;28;20028;-75
2023/08/26 09:16:38;;;;;;;6.13;1.63;;;20.50;99.20;;;;;;5067240;28;20082;-75
2023/08/26 09:19:09;;;;;;;3.05;1.30;;;20.60;98.90;;;;;;5053322;28;20029;-75
2023/08/26 09:21:43;;;;;;;5.88;1.05;;;20.70;98.70;;;;;;5066496;28;20036;-76
2023/08/26 09:24:16;;;;;;;6.50;1.60;;;20.70;98.70;;;;;;5060930;28;20529;-75
2023/08/26 09:26:43;;;;;;;4.55;1.60;;;20.90;98.50;;;;;;5057081;28;20025;-75
2023/08/26 09:29:19;;;;;;;4.07;1.48;;;20.90;98.20;;;;;;5063565;28;20351;-76
2023/08/26 09:31:46;;;;;;;4.13;1.00;;;21.10;97.90;;;;;;5053457;28;20033;-75
2023/08/26 09:34:12;;;;;;;3.38;1.25;;;21.20;97.90;;;;;;5060642;28;20020;-75
2023/08/26 09:36:41;;;;;;;3.75;1.15;;;21.40;98.10;;;;;;5057747;28;20021;-75
2023/08/26 09:39:14;;;;;;;3.65;1.08;;;21.60;97.60;;;;;;5051740;28;20123;-75
2023/08/26 09:41:44;;;;;;;3.13;1.03;;;21.60;97.40;;;;;;5051115;28;20064;-75
2023/08/26 09:44:11;;;;;;;5.15;1.58;;;21.50;97.00;;;;;;5049473;28;20307;-76
2023/08/26 09:46:37;;;;;;;3.05;1.70;;;21.40;97.30;;;;;;5050415;28;20542;-74
2023/08/26 09:49:03;;;;;;;7.10;1.20;;;21.40;97.10;;;;;;5049658;28;20025;-75
2023/08/26 09:51:30;;;;;;;1.52;0.60;;;21.20;96.90;;;;;;5055307;28;20111;-75
2023/08/26 09:53:56;;;;;;;4.47;0.90;;;21.20;96.90;;;;;;5070328;28;20103;-75
2023/08/26 09:56:26;;;;;;;4.70;0.85;;;21.10;97.10;;;;;;5065029;28;20328;-75
2023/08/26 09:58:53;;;;;;;3.33;1.13;;;21.00;97.00;;;;;;5054349;28;20033;-75
2023/08/26 10:01:24;;;;;;;2.22;0.80;;;20.90;97.00;;;;;;5065758;28;20036;-75
2023/08/26 10:04:00;;;;;;;4.20;1.45;;;20.80;96.90;;;;;;5049190;28;20021;-75
2023/08/26 10:06:29;;;;;;;7.88;1.55;;;20.70;97.00;;;;;;5050148;28;20110;-75
2023/08/26 10:09:05;;;;;;;2.63;1.10;;;20.90;97.40;;;;;;5049237;28;20024;-75
2023/08/26 10:11:35;;;;;;;2.95;1.05;;;20.90;97.20;;;;;;5064029;28;20474;-75
2023/08/26 10:14:02;;;;;;;4.28;1.20;;;21.10;97.10;;;;;;5062945;28;20013;-75
2023/08/26 10:16:29;;;;;;;3.58;0.98;;;21.20;97.00;;;;;;5072249;28;20028;-75
2023/08/26 10:18:57;;;;;;;2.47;1.08;;;21.40;97.30;;;;;;5061465;28;20104;-75
2023/08/26 10:21:23;;;;;;;3.88;1.00;;;21.50;97.00;;;;;;5063888;28;20416;-75
2023/08/26 10:23:49;;;;;;;3.42;1.02;;;21.60;96.80;;;;;;5060790;28;20374;-75
2023/08/26 10:26:18;;;;;;;3.55;0.90;;;21.80;96.50;;;;;;5061815;28;20021;-75
2023/08/26 10:28:45;;;;;;;4.30;0.90;;;21.90;96.30;;;;;;5049878;28;20025;-76
2023/08/26 10:31:13;;;;;;;2.92;1.05;;;22.10;96.10;;;;;;5057387;28;20376;-77
2023/08/26 10:34:00;;;;;;;2.58;0.88;;;22.20;95.60;;;;;;5056272;28;20454;-80
2023/08/26 10:36:27;;;;;;;4.80;0.95;;;22.30;95.40;;;;;;5050766;28;20557;-77
2023/08/26 10:38:57;;;;;;;3.65;0.95;;;22.20;95.40;;;;;;5057487;28;20083;-78
2023/08/26 10:41:23;;;;;;;2.78;1.13;;;22.00;95.10;;;;;;5058945;28;20094;-78
2023/08/26 10:43:53;;;;;;;3.28;0.82;;;21.90;95.30;;;;;;5055923;28;20086;-78
2023/08/26 10:46:37;;;;;;;3.75;0.90;;;21.90;95.40;;;;;;5059212;28;20035;-78
2023/08/26 10:49:03;;;;;;;;;;;22.00;95.30;;;;;;5059550;28;20025;-77
2023/08/26 10:51:30;;;;;;;1.52;0.82;;;22.00;95.40;;;;;;5065611;28;19923;-78
2023/08/26 10:54:03;;;;;;;3.20;1.42;;;21.90;95.20;;;;;;5061301;28;20044;-78
2023/08/26 10:56:33;;;;;;;4.47;1.20;;;21.90;95.30;;;;;;5066795;28;20025;-77
2023/08/26 10:59:03;;;;;;;4.25;1.23;;;21.90;95.40;;;;;;5053448;28;20108;-78
2023/08/26 11:01:33;;;;;;;2.78;1.70;;;21.90;95.40;;;;;;5036149;28;20025;-77
2023/08/26 11:03:59;;;;;;;2.88;1.42;;;21.90;95.60;;;;;;5043073;28;20100;-78
2023/08/26 11:06:25;;;;;;;2.60;0.63;;;21.80;95.50;;;;;;5049163;28;20009;-77
2023/08/26 11:08:57;;;;;;;1.98;1.10;;;21.80;95.60;;;;;;5062314;28;20036;-77
2023/08/26 11:11:24;;;;;;;4.57;1.33;;;21.80;95.40;;;;;;5048995;28;20523;-77
2023/08/26 11:13:50;;;;;;;3.47;1.20;;;21.80;95.30;;;;;;5047714;28;20056;-77
2023/08/26 11:16:16;;;;;;;2.60;1.02;;;21.80;95.20;;;;;;5048213;28;20033;-79
2023/08/26 11:18:42;;;;;;;4.68;1.63;;;21.80;95.40;;;;;;5049064;28;20025;-75
2023/08/26 11:21:08;;;;;;;3.75;0.73;;;21.80;95.50;;;;;;5049172;28;20029;-76
2023/08/26 11:23:34;;;;;;;2.88;0.70;;;21.90;95.30;;;;;;5052069;28;20350;-75
2023/08/26 11:26:00;;;;;;;1.88;0.60;;;22.00;95.10;;;;;;5065285;28;20059;-76
2023/08/26 11:28:31;;;;;;;2.13;0.80;;;22.20;94.90;;;;;;5056945;28;20013;-75
2023/08/26 11:30:57;;;;;;;2.22;0.80;;;22.20;94.80;;;;;;5059857;28;20025;-75
2023/08/26 11:33:26;;;;;;;2.35;0.57;;;22.30;94.50;;;;;;5066534;28;20028;-75
2023/08/26 11:35:52;;;;;;;2.15;0.73;;;22.30;94.00;;;;;;5055428;28;20115;-75
2023/08/26 11:38:17;;;;;;;3.05;1.40;;;22.40;93.90;;;;;;5056851;28;20138;-75
2023/08/26 11:40:45;;;;;;;2.10;1.00;;;22.50;93.80;;;;;;5053068;28;20316;-75
2023/08/26 11:43:16;;;;;;;2.22;0.75;;;22.60;93.80;;;;;;5052673;28;20044;-76
2023/08/26 11:45:43;;;;;;;2.00;0.65;;;22.60;93.70;;;;;;5049377;28;20434;-75
2023/08/26 11:48:12;;;;;;;1.27;0.50;;;22.60;93.60;;;;;;5058125;28;20020;-75
2023/08/26 11:50:39;;;;;;;0.90;0.65;;;22.60;93.60;;;;;;5047989;28;20029;-75
2023/08/26 11:53:04;;;;;;;1.67;0.80;;;22.60;93.40;;;;;;5064478;28;20025;-75
2023/08/26 11:55:35;;;;;;;2.20;0.77;;;22.50;93.40;;;;;;5067921;28;20056;-75
2023/08/26 11:58:01;;;;;;;1.05;0.40;;;22.50;93.50;;;;;;5062448;28;20094;-75
2023/08/26 12:00:28;;;;;;;1.42;0.57;;;22.40;93.50;;;;;;5058853;28;20029;-75
2023/08/26 12:03:04;;;;;;;1.63;0.50;;;22.20;93.30;;;;;;5068425;28;20040;-75
2023/08/26 12:05:43;;;;;;;0.85;0.50;;;22.20;93.40;;;;;;5064675;28;20082;-75
2023/08/26 12:08:16;;;;;;;2.70;0.60;;;22.10;93.20;;;;;;5067836;28;20040;-81
2023/08/26 12:10:45;;;;;;;2.10;0.70;;;22.10;93.50;;;;;;5067681;28;20107;-77
2023/08/26 12:13:10;;;;;;;2.55;0.60;;;22.10;93.50;;;;;;5066159;28;20059;-77
2023/08/26 12:15:40;;;;;;;2.08;0.50;;;22.10;93.80;;;;;;5065944;28;20485;-77
2023/08/26 12:18:06;;;;;;;2.72;0.70;;;22.30;94.10;;;;;;5067022;28;20070;-77
2023/08/26 12:20:32;;;;;;;2.10;0.40;;;22.50;93.70;;;;;;5054693;28;20041;-77
2023/08/26 12:23:02;;;;;;;3.40;0.60;;;22.60;93.20;;;;;;5052025;28;20562;-77
2023/08/26 12:25:32;;;;;;;2.55;0.60;;;22.70;92.90;;;;;;5052265;28;20040;-77
2023/08/26 12:28:12;;;;;;;2.20;0.70;;;22.80;92.70;;;;;;5068739;28;20057;-77
2023/08/26 12:30:40;;;;;;;1.80;0.50;;;22.80;92.40;;;;;;5044460;28;20035;-77
2023/08/26 12:33:06;;;;;;;3.22;0.40;;;22.80;92.50;;;;;;5040161;28;20026;-77
2023/08/26 12:35:36;;;;;;;0.60;0.32;;;22.80;92.60;;;;;;5044651;28;20110;-77
2023/08/26 12:38:02;;;;;;;2.15;0.40;;;22.80;92.30;;;;;;5044586;28;20021;-77
2023/08/26 12:40:33;;;;;;;0.85;0.40;;;22.90;92.50;;;;;;5039809;28;20044;-77
2023/08/26 12:42:59;;;;;;;2.75;0.65;;;23.00;92.50;;;;;;5034516;28;20501;-77